Time;durP1;ratioP1;P1;durP2;ratioP2;P2;SDS_P1;SDS_P2;PMS_P1;PMS_P2;Temp;Humidity;BMP_temperature;BMP_pressure;BME280_temperature;BME280_humidity;BME280_pressure;Samples;Min_cycle;Max_cycle;Signal;HPM_P1;HPM_P2
2023/04/21 00:00:06;;;;;;;27.85;18.65;;;9.20;99.90;;;;;;5073639;28;20068;-68
2023/04/21 00:02:32;;;;;;;29.52;18.33;;;9.20;99.90;;;;;;5055921;28;20417;-69
2023/04/21 00:04:59;;;;;;;24.50;17.52;;;9.20;99.90;;;;;;5055461;28;20124;-69
2023/04/21 00:07:24;;;;;;;25.90;17.42;;;9.20;99.90;;;;;;5073548;28;20447;-68
2023/04/21 00:09:50;;;;;;;26.42;17.65;;;9.10;99.90;;;;;;5073453;28;20040;-69
2023/04/21 00:12:15;;;;;;;24.27;16.23;;;9.10;99.90;;;;;;5055645;28;20036;-69
2023/04/21 00:14:41;;;;;;;29.20;18.15;;;9.10;99.90;;;;;;5073415;28;20041;-70
2023/04/21 00:17:06;;;;;;;28.63;18.40;;;9.10;99.90;;;;;;5073198;28;20093;-68
2023/04/21 00:19:34;;;;;;;23.05;17.52;;;9.10;99.90;;;;;;5073162;28;20040;-70
2023/04/21 00:22:00;;;;;;;26.85;18.33;;;9.10;99.90;;;;;;5055632;28;20048;-69
2023/04/21 00:24:25;;;;;;;24.45;16.55;;;9.10;99.90;;;;;;5073307;28;20032;-69
2023/04/21 00:26:51;;;;;;;26.30;18.38;;;9.20;99.90;;;;;;5055167;28;20106;-69
2023/04/21 00:29:17;;;;;;;26.00;17.73;;;9.00;99.90;;;;;;5073209;28;20048;-69
2023/04/21 00:31:42;;;;;;;27.98;16.92;;;9.10;99.90;;;;;;5055327;28;20032;-69
2023/04/21 00:34:08;;;;;;;26.17;17.55;;;9.00;99.90;;;;;;5072938;28;20768;-69
2023/04/21 00:36:34;;;;;;;28.05;18.00;;;9.00;99.90;;;;;;5072821;28;20094;-70
2023/04/21 00:38:59;;;;;;;25.30;16.80;;;9.00;99.90;;;;;;5054746;28;20076;-69
2023/04/21 00:41:27;;;;;;;23.35;17.25;;;9.00;99.90;;;;;;5037946;28;20514;-68
2023/04/21 00:44:03;;;;;;;26.52;17.13;;;9.00;99.90;;;;;;5072900;28;20044;-68
2023/04/21 00:46:29;;;;;;;27.23;16.77;;;9.00;99.90;;;;;;5072511;28;20098;-69
2023/04/21 00:48:54;;;;;;;27.08;16.45;;;9.00;99.90;;;;;;5054758;28;20052;-69
2023/04/21 00:51:20;;;;;;;27.55;16.95;;;9.00;99.90;;;;;;5054788;28;20051;-69
2023/04/21 00:53:47;;;;;;;25.05;15.00;;;8.90;99.90;;;;;;5054713;28;20044;-69
2023/04/21 00:56:13;;;;;;;27.25;16.42;;;8.90;99.90;;;;;;5072386;28;20535;-69
2023/04/21 00:58:41;;;;;;;24.90;15.82;;;8.90;99.90;;;;;;5054545;28;20049;-68
2023/04/21 01:01:07;;;;;;;24.75;15.80;;;8.90;99.90;;;;;;5072291;28;20063;-69
2023/04/21 01:03:33;;;;;;;27.05;14.65;;;8.90;99.90;;;;;;5054902;28;20036;-68
2023/04/21 01:05:58;;;;;;;24.63;14.73;;;8.90;99.90;;;;;;5072217;28;20539;-69
2023/04/21 01:08:25;;;;;;;26.00;14.88;;;8.90;99.90;;;;;;5054807;28;20037;-69
2023/04/21 01:10:51;;;;;;;33.55;15.40;;;8.80;99.90;;;;;;5054124;28;20040;-68
2023/04/21 01:13:19;;;;;;;21.80;13.65;;;8.90;99.90;;;;;;5072344;28;20186;-69
2023/04/21 01:15:45;;;;;;;21.52;14.13;;;8.80;99.90;;;;;;5071920;28;20115;-69
2023/04/21 01:18:11;;;;;;;24.60;15.23;;;8.80;99.90;;;;;;5072027;28;20120;-69
2023/04/21 01:20:37;;;;;;;22.65;14.98;;;8.70;99.90;;;;;;5072018;28;20051;-69
2023/04/21 01:23:03;;;;;;;24.60;13.90;;;8.70;99.90;;;;;;5054288;28;20041;-69
2023/04/21 01:25:29;;;;;;;24.77;14.38;;;8.70;99.90;;;;;;5054134;28;20041;-70
2023/04/21 01:27:54;;;;;;;26.33;14.15;;;8.70;99.90;;;;;;5054084;28;20131;-69
2023/04/21 01:30:20;;;;;;;23.67;15.27;;;8.80;99.90;;;;;;5054003;28;20123;-69
2023/04/21 01:32:45;;;;;;;25.05;13.93;;;8.70;99.90;;;;;;5072076;28;20040;-69
2023/04/21 01:35:11;;;;;;;24.27;14.43;;;8.70;99.90;;;;;;5053986;28;20040;-69
2023/04/21 01:37:37;;;;;;;21.77;14.00;;;8.70;99.90;;;;;;5037281;28;20040;-70
2023/04/21 01:40:06;;;;;;;24.38;14.90;;;8.70;99.90;;;;;;5053586;28;20068;-69
2023/04/21 01:42:32;;;;;;;28.30;15.13;;;8.70;99.90;;;;;;5053946;28;20047;-69
2023/04/21 01:44:59;;;;;;;20.52;13.90;;;8.60;99.90;;;;;;5053986;28;20209;-69
2023/04/21 01:47:25;;;;;;;23.05;14.68;;;8.70;99.90;;;;;;5053777;28;20036;-69
2023/04/21 01:49:51;;;;;;;23.23;14.65;;;8.60;99.90;;;;;;5071804;28;20098;-69
2023/04/21 01:52:17;;;;;;;22.77;14.25;;;8.60;99.90;;;;;;5071807;28;20447;-69
2023/04/21 01:54:42;;;;;;;24.65;15.60;;;8.60;99.90;;;;;;5053571;28;20044;-70
2023/04/21 01:57:08;;;;;;;23.15;15.00;;;8.60;99.90;;;;;;5037013;28;20044;-69
2023/04/21 01:59:34;;;;;;;25.55;16.10;;;8.60;99.90;;;;;;5071350;28;20044;-69
2023/04/21 02:01:59;;;;;;;24.55;15.50;;;8.60;99.90;;;;;;5053551;28;20105;-69
2023/04/21 02:04:25;;;;;;;26.52;14.85;;;8.60;99.90;;;;;;5071645;28;20036;-69
2023/04/21 02:06:50;;;;;;;22.58;15.10;;;8.60;99.90;;;;;;5053807;28;20047;-69
2023/04/21 02:09:16;;;;;;;24.50;15.85;;;8.60;99.90;;;;;;5071383;28;20530;-68
2023/04/21 02:11:41;;;;;;;22.98;15.93;;;8.70;99.90;;;;;;5053849;28;20098;-69
2023/04/21 02:14:07;;;;;;;25.10;15.63;;;8.60;99.90;;;;;;5071461;28;20094;-69
2023/04/21 02:16:33;;;;;;;29.45;16.02;;;8.50;99.90;;;;;;5071136;28;20456;-69
2023/04/21 02:19:02;;;;;;;26.80;15.82;;;8.60;99.90;;;;;;5071487;28;20047;-68
2023/04/21 02:21:27;;;;;;;24.15;15.75;;;8.60;99.90;;;;;;5071601;28;20059;-69
2023/04/21 02:23:53;;;;;;;24.83;16.52;;;8.50;99.90;;;;;;5053717;28;20040;-69
2023/04/21 02:26:19;;;;;;;24.48;15.45;;;8.50;99.90;;;;;;5071120;28;20565;-69
2023/04/21 02:28:45;;;;;;;27.92;15.95;;;8.60;99.90;;;;;;5054484;28;20083;-69
2023/04/21 02:31:10;;;;;;;25.60;15.95;;;8.50;99.90;;;;;;5075548;28;20068;-69
2023/04/21 02:33:36;;;;;;;25.90;16.40;;;8.40;99.90;;;;;;5075363;28;20036;-69
2023/04/21 02:36:02;;;;;;;25.63;14.95;;;8.40;99.90;;;;;;5057394;28;20127;-69
2023/04/21 02:38:27;;;;;;;25.20;16.13;;;8.30;99.90;;;;;;5057216;28;20517;-69
2023/04/21 02:40:53;;;;;;;28.38;16.20;;;8.40;99.90;;;;;;5074990;28;20036;-69
2023/04/21 02:43:19;;;;;;;23.35;16.17;;;8.30;99.90;;;;;;5075072;28;20491;-68
2023/04/21 02:45:45;;;;;;;30.60;16.60;;;8.30;99.90;;;;;;5075113;28;20033;-69
2023/04/21 02:48:10;;;;;;;24.52;15.93;;;8.30;99.90;;;;;;5075222;28;20041;-70
2023/04/21 02:50:36;;;;;;;21.95;15.38;;;8.20;99.90;;;;;;5074445;28;20047;-69
2023/04/21 02:53:02;;;;;;;26.98;16.55;;;8.20;99.90;;;;;;5074917;28;20044;-69
2023/04/21 02:55:28;;;;;;;27.55;16.95;;;8.30;99.90;;;;;;5074899;28;20047;-70
2023/04/21 02:57:54;;;;;;;30.02;17.10;;;8.20;99.90;;;;;;5056782;28;20114;-69
2023/04/21 03:00:19;;;;;;;26.17;16.90;;;8.20;99.90;;;;;;5074510;28;20082;-69
2023/04/21 03:02:45;;;;;;;25.33;15.77;;;8.20;99.90;;;;;;5056930;28;20056;-69
2023/04/21 03:05:11;;;;;;;25.85;16.27;;;8.20;99.90;;;;;;5056802;28;20052;-69
2023/04/21 03:07:37;;;;;;;21.73;16.05;;;8.20;99.90;;;;;;5056689;28;20435;-69
2023/04/21 03:10:05;;;;;;;26.35;17.02;;;8.20;99.90;;;;;;5056786;28;20062;-69
2023/04/21 03:12:31;;;;;;;26.42;15.98;;;8.20;99.90;;;;;;5074643;28;20040;-69
2023/04/21 03:14:56;;;;;;;25.45;15.68;;;8.10;99.90;;;;;;5074667;28;20032;-68
2023/04/21 03:17:22;;;;;;;25.85;17.00;;;8.10;99.90;;;;;;5074502;28;20040;-69
2023/04/21 03:19:47;;;;;;;27.30;16.65;;;8.10;99.90;;;;;;5074382;28;20048;-69
2023/04/21 03:22:13;;;;;;;25.40;16.92;;;8.10;99.90;;;;;;5056530;28;20070;-69
2023/04/21 03:24:38;;;;;;;26.00;15.77;;;8.00;99.90;;;;;;5056601;28;20044;-69
2023/04/21 03:27:05;;;;;;;27.38;16.05;;;8.00;99.90;;;;;;5074431;28;20056;-69
2023/04/21 03:29:30;;;;;;;26.73;16.20;;;8.00;99.90;;;;;;5056634;28;20041;-69
2023/04/21 03:31:56;;;;;;;25.05;15.70;;;8.00;99.90;;;;;;5074473;28;20039;-69
2023/04/21 03:34:21;;;;;;;22.63;14.70;;;8.10;99.90;;;;;;5073809;28;20408;-68
2023/04/21 03:36:47;;;;;;;27.38;16.50;;;8.00;99.90;;;;;;5054879;28;20044;-68
2023/04/21 03:39:12;;;;;;;30.10;16.88;;;8.00;99.90;;;;;;5072577;28;20045;-69
2023/04/21 03:41:38;;;;;;;23.10;14.57;;;8.00;99.90;;;;;;5056177;28;20492;-69
2023/04/21 03:44:04;;;;;;;24.17;15.88;;;7.90;99.90;;;;;;5074367;28;20029;-68
2023/04/21 03:46:29;;;;;;;24.13;15.65;;;7.90;99.90;;;;;;5073999;28;20117;-69
2023/04/21 03:48:55;;;;;;;25.25;14.75;;;8.00;99.90;;;;;;5056095;28;20040;-69
2023/04/21 03:51:20;;;;;;;23.60;15.00;;;8.00;99.90;;;;;;5073948;28;20446;-69
2023/04/21 03:53:46;;;;;;;23.98;15.27;;;8.00;99.90;;;;;;5055965;28;20124;-68
2023/04/21 03:56:11;;;;;;;23.63;15.13;;;8.00;99.90;;;;;;5056011;28;20075;-69
2023/04/21 03:58:37;;;;;;;25.70;14.70;;;8.00;99.90;;;;;;5074006;28;20039;-68
2023/04/21 04:01:06;;;;;;;22.08;14.10;;;8.00;99.90;;;;;;5073699;28;20094;-68
2023/04/21 04:03:32;;;;;;;28.63;14.75;;;8.00;99.90;;;;;;5055840;28;20048;-68
2023/04/21 04:05:57;;;;;;;25.70;13.70;;;8.10;99.90;;;;;;5073468;28;20097;-69
2023/04/21 04:08:23;;;;;;;22.20;14.45;;;8.10;99.90;;;;;;5073991;28;20040;-69
2023/04/21 04:10:48;;;;;;;20.60;14.40;;;8.10;99.90;;;;;;5055593;28;20060;-68
2023/04/21 04:13:14;;;;;;;23.02;15.20;;;8.00;99.90;;;;;;5055706;28;20449;-67
2023/04/21 04:15:40;;;;;;;24.33;14.55;;;8.00;99.90;;;;;;5073454;28;20514;-68
2023/04/21 04:18:05;;;;;;;23.92;15.48;;;8.00;99.90;;;;;;5073376;28;20093;-68
2023/04/21 04:20:31;;;;;;;22.27;14.80;;;8.00;99.90;;;;;;5054928;28;20154;-68
2023/04/21 04:22:56;;;;;;;23.27;14.43;;;8.10;99.90;;;;;;5055689;28;20044;-68
2023/04/21 04:25:22;;;;;;;29.13;15.63;;;8.20;99.90;;;;;;5055459;28;20075;-68
2023/04/21 04:27:49;;;;;;;24.13;14.32;;;8.10;99.90;;;;;;5073179;28;20036;-68
2023/04/21 04:30:14;;;;;;;21.40;14.38;;;8.20;99.90;;;;;;5055293;28;20047;-69
2023/04/21 04:32:40;;;;;;;21.90;14.35;;;8.10;99.90;;;;;;5073162;28;20036;-69
2023/04/21 04:35:06;;;;;;;24.83;15.18;;;8.10;99.90;;;;;;5054744;28;20194;-68
2023/04/21 04:37:34;;;;;;;20.90;15.10;;;8.10;99.90;;;;;;5054955;28;20093;-69
2023/04/21 04:39:59;;;;;;;21.25;14.15;;;8.20;99.90;;;;;;5072561;28;20052;-68
2023/04/21 04:42:25;;;;;;;20.40;13.85;;;8.20;99.90;;;;;;5073149;28;20033;-68
2023/04/21 04:44:54;;;;;;;20.13;14.35;;;8.20;99.90;;;;;;5072728;28;20041;-68
2023/04/21 04:47:20;;;;;;;20.20;13.52;;;8.20;99.90;;;;;;5054621;28;20072;-68
2023/04/21 04:49:46;;;;;;;23.13;13.65;;;8.20;99.90;;;;;;5054655;28;20080;-68
2023/04/21 04:52:11;;;;;;;19.58;13.68;;;8.30;99.90;;;;;;5054095;28;20119;-68
2023/04/21 04:54:37;;;;;;;22.38;13.35;;;8.30;99.90;;;;;;5072402;28;20430;-68
2023/04/21 04:57:03;;;;;;;22.83;13.82;;;8.30;99.90;;;;;;5054548;28;20036;-68
2023/04/21 04:59:29;;;;;;;20.88;12.65;;;8.40;99.90;;;;;;5072577;28;20530;-68
2023/04/21 05:01:56;;;;;;;19.65;13.07;;;8.40;99.90;;;;;;5072590;28;20040;-68
2023/04/21 05:04:22;;;;;;;21.02;13.45;;;8.40;99.90;;;;;;5054302;28;20488;-67
2023/04/21 05:06:47;;;;;;;23.35;12.88;;;8.50;99.90;;;;;;5054332;28;20033;-68
2023/04/21 05:09:13;;;;;;;18.10;12.50;;;8.60;99.90;;;;;;5072063;28;20150;-68
2023/04/21 05:11:38;;;;;;;23.98;13.35;;;8.60;99.90;;;;;;5072538;28;20053;-69
2023/04/21 05:14:04;;;;;;;19.20;13.13;;;8.60;99.90;;;;;;5054605;28;20040;-69
2023/04/21 05:16:30;;;;;;;19.05;12.88;;;8.70;99.90;;;;;;5072238;28;20044;-68
2023/04/21 05:18:55;;;;;;;19.30;13.00;;;8.80;99.90;;;;;;5054316;28;20056;-68
2023/04/21 05:21:27;;;;;;;17.77;12.48;;;8.80;99.90;;;;;;5054110;28;20036;-68
2023/04/21 05:23:55;;;;;;;23.00;13.38;;;8.90;99.90;;;;;;5054574;28;20445;-68
2023/04/21 05:26:21;;;;;;;17.88;11.35;;;9.00;99.90;;;;;;5053873;28;20037;-68
2023/04/21 05:28:47;;;;;;;17.98;11.43;;;9.10;99.90;;;;;;5054242;28;20198;-68
2023/04/21 05:31:12;;;;;;;19.95;11.90;;;9.20;99.90;;;;;;5072289;28;20515;-69
2023/04/21 05:33:38;;;;;;;22.17;11.93;;;9.30;99.90;;;;;;5071939;28;20044;-68
2023/04/21 05:36:10;;;;;;;21.83;12.40;;;9.40;99.90;;;;;;5053726;28;20048;-69
2023/04/21 05:38:36;;;;;;;19.08;11.95;;;9.50;99.90;;;;;;5053985;28;20044;-69
2023/04/21 05:41:03;;;;;;;18.17;11.70;;;9.60;99.90;;;;;;5071770;28;20434;-70
2023/04/21 05:43:28;;;;;;;18.98;11.90;;;9.70;99.90;;;;;;5053943;28;20033;-70
2023/04/21 05:45:54;;;;;;;18.65;11.43;;;9.80;99.90;;;;;;5053672;28;20047;-69
2023/04/21 05:48:20;;;;;;;26.58;12.20;;;10.00;99.90;;;;;;5053895;28;20496;-69
2023/04/21 05:50:45;;;;;;;15.93;10.70;;;10.10;99.90;;;;;;5053548;28;20040;-69
2023/04/21 05:53:11;;;;;;;19.45;12.00;;;10.20;99.90;;;;;;5071883;28;20128;-70
2023/04/21 05:55:36;;;;;;;14.85;10.32;;;10.30;99.90;;;;;;5053894;28;20040;-69
2023/04/21 05:58:03;;;;;;;19.60;10.95;;;10.50;99.90;;;;;;5053624;28;20036;-70
2023/04/21 06:00:29;;;;;;;19.98;10.52;;;10.60;99.90;;;;;;5071383;28;20044;-69
2023/04/21 06:02:54;;;;;;;19.67;11.18;;;10.70;99.90;;;;;;5071457;28;20095;-69
2023/04/21 06:05:20;;;;;;;18.45;10.40;;;10.80;99.90;;;;;;5053520;28;20435;-69
2023/04/21 06:07:46;;;;;;;15.93;10.07;;;11.00;99.90;;;;;;5071652;28;20037;-69
2023/04/21 06:10:13;;;;;;;17.08;10.73;;;11.10;99.90;;;;;;5071461;28;20062;-69
2023/04/21 06:12:39;;;;;;;14.15;10.32;;;11.30;99.90;;;;;;5067708;28;20404;-69
2023/04/21 06:15:05;;;;;;;15.82;9.65;;;11.30;99.90;;;;;;5069830;28;20036;-69
2023/04/21 06:17:30;;;;;;;13.60;9.07;;;11.50;99.90;;;;;;5064110;28;20090;-69
2023/04/21 06:19:56;;;;;;;16.02;10.02;;;11.60;99.90;;;;;;5071787;28;20037;-69
2023/04/21 06:22:22;;;;;;;14.57;9.18;;;11.80;99.90;;;;;;5071679;28;20029;-69
2023/04/21 06:24:47;;;;;;;14.45;9.50;;;11.90;99.90;;;;;;5071504;28;20048;-69
2023/04/21 06:27:13;;;;;;;17.83;9.43;;;12.00;99.90;;;;;;5071404;28;20029;-69
2023/04/21 06:29:40;;;;;;;16.48;9.73;;;12.00;99.90;;;;;;5071449;28;20127;-68
2023/04/21 06:32:06;;;;;;;12.35;9.00;;;12.10;99.90;;;;;;5070110;28;20419;-69
2023/04/21 06:34:32;;;;;;;17.75;10.02;;;12.20;99.90;;;;;;5071088;28;20044;-69
2023/04/21 06:36:57;;;;;;;18.30;10.20;;;12.30;99.90;;;;;;5071394;28;20109;-69
2023/04/21 06:39:22;;;;;;;13.02;9.77;;;12.20;99.90;;;;;;5071005;28;20574;-69
2023/04/21 06:41:48;;;;;;;12.00;8.77;;;12.30;99.90;;;;;;5071477;28;20044;-69
2023/04/21 06:44:14;;;;;;;16.20;10.25;;;12.30;99.90;;;;;;5069994;28;20048;-69
2023/04/21 06:46:40;;;;;;;13.98;9.35;;;12.40;99.90;;;;;;5071017;28;20036;-69
2023/04/21 06:49:09;;;;;;;14.15;8.45;;;12.40;99.90;;;;;;5071140;28;20442;-69
2023/04/21 06:51:36;;;;;;;15.98;9.77;;;12.60;99.90;;;;;;5071427;28;20044;-69
2023/04/21 06:54:01;;;;;;;14.57;9.35;;;12.80;99.90;;;;;;5071185;28;20534;-69
2023/04/21 06:56:27;;;;;;;14.05;10.05;;;12.70;99.90;;;;;;5071025;28;20048;-68
2023/04/21 06:58:53;;;;;;;15.07;9.07;;;12.80;99.90;;;;;;5071128;28;20048;-69
2023/04/21 07:01:19;;;;;;;20.38;10.30;;;12.90;99.90;;;;;;5071122;28;20036;-69
2023/04/21 07:03:44;;;;;;;13.00;8.50;;;13.00;99.90;;;;;;5070835;28;20035;-70
2023/04/21 07:06:11;;;;;;;12.73;9.45;;;13.10;99.90;;;;;;5070904;28;20058;-69
2023/04/21 07:08:36;;;;;;;13.50;8.75;;;13.20;99.90;;;;;;5071407;28;20037;-69
2023/04/21 07:11:02;;;;;;;14.43;9.25;;;13.10;99.90;;;;;;5070920;28;20040;-69
2023/04/21 07:13:27;;;;;;;15.35;9.57;;;13.10;99.90;;;;;;5056554;28;20033;-69
2023/04/21 07:15:53;;;;;;;20.35;9.27;;;13.20;99.90;;;;;;5054970;28;20044;-69
2023/04/21 07:18:18;;;;;;;24.38;10.80;;;13.30;99.90;;;;;;5071149;28;20079;-69
2023/04/21 07:20:45;;;;;;;20.25;11.00;;;13.30;99.90;;;;;;5074254;28;20424;-70
2023/04/21 07:23:10;;;;;;;15.30;9.60;;;13.30;99.90;;;;;;5074259;28;20039;-70
2023/04/21 07:25:36;;;;;;;19.33;9.23;;;13.50;99.90;;;;;;5073949;28;20037;-70
2023/04/21 07:28:02;;;;;;;15.88;10.27;;;13.60;99.90;;;;;;5074003;28;20036;-69
2023/04/21 07:30:28;;;;;;;13.68;9.50;;;13.70;99.90;;;;;;5074001;28;20032;-70
2023/04/21 07:32:54;;;;;;;13.45;9.25;;;13.70;99.90;;;;;;5056313;28;20040;-67
2023/04/21 07:35:20;;;;;;;13.35;9.23;;;13.70;99.90;;;;;;5074149;28;20051;-70
2023/04/21 07:37:46;;;;;;;16.65;9.38;;;14.00;99.90;;;;;;5056156;28;20037;-66
2023/04/21 07:40:12;;;;;;;18.38;10.05;;;14.20;99.90;;;;;;5074078;28;20428;-66
2023/04/21 07:42:38;;;;;;;15.55;9.25;;;14.20;99.90;;;;;;5056396;28;20037;-67
2023/04/21 07:45:04;;;;;;;14.23;9.18;;;14.40;99.90;;;;;;5056170;28;20033;-66
2023/04/21 07:47:30;;;;;;;15.02;8.73;;;14.30;99.90;;;;;;5073931;28;20056;-67
2023/04/21 07:49:55;;;;;;;15.73;8.60;;;14.50;99.90;;;;;;5056021;28;20044;-66
2023/04/21 07:52:22;;;;;;;15.10;8.90;;;14.70;99.90;;;;;;5074016;28;20136;-67
2023/04/21 07:54:47;;;;;;;16.27;8.98;;;14.90;99.90;;;;;;5073932;28;20032;-66
2023/04/21 07:57:13;;;;;;;17.75;9.95;;;14.90;99.90;;;;;;5073815;28;20090;-66
2023/04/21 07:59:38;;;;;;;17.92;9.52;;;15.00;99.90;;;;;;5073550;28;20048;-65
2023/04/21 08:02:04;;;;;;;12.32;8.75;;;15.10;99.90;;;;;;5073749;28;20040;-71
2023/04/21 08:04:30;;;;;;;14.05;8.70;;;15.00;99.90;;;;;;5073840;28;20087;-68
2023/04/21 08:06:55;;;;;;;18.77;8.88;;;15.00;99.90;;;;;;5055877;28;20033;-68
2023/04/21 08:09:21;;;;;;;14.13;8.70;;;15.10;99.90;;;;;;5073671;28;20044;-68
2023/04/21 08:11:46;;;;;;;19.85;10.00;;;15.30;99.90;;;;;;5073793;28;20407;-68
2023/04/21 08:14:12;;;;;;;17.27;10.05;;;15.30;99.90;;;;;;5055567;28;20040;-69
2023/04/21 08:16:40;;;;;;;21.90;9.75;;;15.30;99.90;;;;;;5073183;28;20040;-68
2023/04/21 08:19:07;;;;;;;16.85;9.15;;;15.30;99.90;;;;;;5055438;28;20115;-69
2023/04/21 08:21:32;;;;;;;13.20;8.65;;;15.40;99.90;;;;;;5039023;28;20045;-68
2023/04/21 08:23:58;;;;;;;18.25;9.73;;;15.60;99.90;;;;;;5073485;28;20036;-68
2023/04/21 08:26:24;;;;;;;15.48;9.48;;;15.60;99.90;;;;;;5071924;28;20036;-68
2023/04/21 08:28:51;;;;;;;20.15;9.55;;;15.60;99.90;;;;;;5055233;28;20423;-68
2023/04/21 08:31:18;;;;;;;12.43;8.65;;;15.90;99.90;;;;;;5055518;28;20094;-69
2023/04/21 08:33:44;;;;;;;15.50;8.38;;;15.90;99.90;;;;;;5073346;28;20047;-69
2023/04/21 08:36:10;;;;;;;12.55;7.93;;;16.00;99.90;;;;;;5054904;28;20036;-68
2023/04/21 08:38:42;;;;;;;12.52;7.88;;;16.10;99.90;;;;;;5055038;28;20040;-68
2023/04/21 08:41:08;;;;;;;15.55;8.35;;;16.10;99.50;;;;;;5054973;28;20510;-69
2023/04/21 08:43:33;;;;;;;12.57;7.70;;;16.10;99.80;;;;;;5072879;28;20119;-68
2023/04/21 08:46:01;;;;;;;14.13;8.05;;;16.10;99.20;;;;;;5055074;28;20093;-68
2023/04/21 08:48:28;;;;;;;16.05;9.15;;;16.10;99.20;;;;;;5054999;28;20036;-69
2023/04/21 08:50:54;;;;;;;13.50;8.88;;;16.10;99.20;;;;;;5072924;28;20040;-68
2023/04/21 08:53:20;;;;;;;14.05;8.75;;;16.30;99.40;;;;;;5072738;28;20048;-69
2023/04/21 08:55:50;;;;;;;19.13;10.10;;;16.40;98.40;;;;;;5054517;28;20055;-68
2023/04/21 08:58:16;;;;;;;17.73;8.57;;;16.30;97.60;;;;;;5054883;28;20389;-68
2023/04/21 09:00:41;;;;;;;14.95;8.07;;;16.20;97.60;;;;;;5054939;28;20039;-68
2023/04/21 09:03:07;;;;;;;14.40;8.23;;;16.30;97.60;;;;;;5072584;28;20036;-68
2023/04/21 09:05:33;;;;;;;17.88;8.80;;;16.30;97.60;;;;;;5054584;28;20047;-68
2023/04/21 09:08:10;;;;;;;12.05;8.93;;;16.50;97.80;;;;;;5054443;28;20040;-69
2023/04/21 09:10:49;;;;;;;16.80;9.85;;;16.60;97.30;;;;;;5054427;28;20463;-69
2023/04/21 09:13:16;;;;;;;14.35;9.13;;;16.70;96.90;;;;;;5054483;28;20070;-69
2023/04/21 09:15:47;;;;;;;11.68;8.20;;;16.70;97.30;;;;;;5072232;28;20496;-69
2023/04/21 09:18:18;;;;;;;14.30;8.27;;;16.70;96.80;;;;;;5054394;28;20048;-69
2023/04/21 09:20:45;;;;;;;17.08;8.18;;;16.70;96.30;;;;;;5072258;28;20036;-68
2023/04/21 09:23:11;;;;;;;13.45;8.45;;;16.70;95.40;;;;;;5054186;28;20040;-69
2023/04/21 09:25:43;;;;;;;16.85;8.73;;;16.70;94.60;;;;;;5072293;28;20128;-69
2023/04/21 09:28:10;;;;;;;15.13;8.23;;;16.70;95.00;;;;;;5072298;28;20082;-69
2023/04/21 09:30:37;;;;;;;13.38;7.90;;;16.70;95.30;;;;;;5072073;28;20044;-69
2023/04/21 09:33:02;;;;;;;10.10;7.68;;;16.70;95.30;;;;;;5072195;28;20036;-69
2023/04/21 09:35:32;;;;;;;15.35;7.65;;;16.90;95.60;;;;;;5072018;28;20408;-68
2023/04/21 09:37:59;;;;;;;14.10;8.77;;;16.90;95.20;;;;;;5071355;28;20040;-69
2023/04/21 09:40:25;;;;;;;13.50;8.07;;;16.90;94.80;;;;;;5054160;28;20488;-69
2023/04/21 09:42:50;;;;;;;13.13;8.23;;;17.00;95.00;;;;;;5037358;28;20040;-69
2023/04/21 09:45:17;;;;;;;12.88;8.18;;;17.00;94.80;;;;;;5071971;28;20075;-69
2023/04/21 09:47:47;;;;;;;11.98;8.20;;;17.00;94.10;;;;;;5071935;28;20079;-69
2023/04/21 09:50:14;;;;;;;12.52;7.55;;;17.00;93.70;;;;;;5053785;28;20055;-69
2023/04/21 09:52:43;;;;;;;16.77;8.55;;;17.00;93.70;;;;;;5053920;28;20037;-69
2023/04/21 09:55:13;;;;;;;13.15;8.30;;;17.10;94.10;;;;;;5053645;28;20111;-69
2023/04/21 09:57:41;;;;;;;19.75;8.50;;;17.10;93.30;;;;;;5053667;28;20060;-74
2023/04/21 10:00:08;;;;;;;9.65;7.13;;;17.40;94.00;;;;;;5053075;28;20043;-75
2023/04/21 10:02:37;;;;;;;14.98;8.10;;;17.40;93.40;;;;;;5053169;28;20093;-74
2023/04/21 10:05:06;;;;;;;17.05;9.27;;;17.50;92.30;;;;;;5050748;28;20040;-76
2023/04/21 10:07:32;;;;;;;12.52;8.88;;;17.50;92.20;;;;;;5053672;28;20488;-75
2023/04/21 10:09:59;;;;;;;19.48;9.27;;;17.50;91.80;;;;;;5053924;28;20040;-75
2023/04/21 10:12:27;;;;;;;12.40;8.88;;;17.50;91.90;;;;;;5053869;28;20048;-75
2023/04/21 10:14:56;;;;;;;13.80;8.40;;;17.50;92.20;;;;;;5053505;28;20033;-75
2023/04/21 10:17:24;;;;;;;11.20;7.78;;;17.70;92.20;;;;;;5053409;28;20127;-75
2023/04/21 10:19:56;;;;;;;14.27;8.43;;;17.70;91.80;;;;;;5053707;28;20415;-75
2023/04/21 10:22:30;;;;;;;15.60;8.10;;;17.70;91.60;;;;;;5053813;28;20399;-76
2023/04/21 10:24:57;;;;;;;14.68;8.75;;;17.80;92.10;;;;;;5036750;28;20029;-77
2023/04/21 10:27:39;;;;;;;16.25;8.18;;;17.90;91.90;;;;;;5053258;28;20115;-77
2023/04/21 10:30:17;;;;;;;12.98;8.13;;;17.90;90.50;;;;;;5053440;28;20062;-77
2023/04/21 10:32:44;;;;;;;10.60;7.35;;;18.00;90.30;;;;;;5053696;28;20036;-77
2023/04/21 10:35:22;;;;;;;12.30;7.18;;;18.00;89.70;;;;;;5053319;28;20055;-77
2023/04/21 10:37:50;;;;;;;12.32;7.90;;;18.10;88.00;;;;;;5036816;28;20041;-77
2023/04/21 10:40:34;;;;;;;13.57;7.03;;;18.10;87.00;;;;;;5052441;28;20454;-77
2023/04/21 10:43:03;;;;;;;9.77;6.57;;;18.20;86.20;;;;;;5051405;28;20033;-76
2023/04/21 10:45:30;;;;;;;12.38;7.25;;;18.20;85.50;;;;;;5055761;28;20083;-76
2023/04/21 10:48:00;;;;;;;17.27;8.20;;;18.10;84.70;;;;;;5053315;28;20072;-76
2023/04/21 10:50:29;;;;;;;14.27;7.38;;;18.20;84.90;;;;;;5039062;28;20043;-76
2023/04/21 10:53:15;;;;;;;14.63;6.60;;;18.10;83.80;;;;;;5040562;28;20076;-76
2023/04/21 10:55:42;;;;;;;13.43;7.63;;;18.20;84.60;;;;;;5057110;28;20032;-76
2023/04/21 10:58:08;;;;;;;12.70;6.88;;;18.20;83.80;;;;;;5039952;28;20084;-77
2023/04/21 11:00:36;;;;;;;13.88;7.07;;;18.30;84.30;;;;;;5040180;28;20036;-76
2023/04/21 11:03:05;;;;;;;10.80;6.70;;;18.50;84.20;;;;;;5040277;28;20033;-75
2023/04/21 11:05:39;;;;;;;10.60;6.65;;;18.60;83.30;;;;;;5040150;28;20047;-75
2023/04/21 11:08:06;;;;;;;10.23;6.20;;;18.50;80.90;;;;;;5056885;28;20043;-75
2023/04/21 11:10:49;;;;;;;10.90;7.03;;;18.50;81.30;;;;;;5056724;28;20107;-75
2023/04/21 11:13:15;;;;;;;17.35;6.43;;;18.60;80.60;;;;;;5056618;28;20063;-75
2023/04/21 11:15:41;;;;;;;10.02;6.70;;;18.70;79.80;;;;;;5056508;28;20037;-75
2023/04/21 11:18:08;;;;;;;9.80;6.65;;;18.70;78.90;;;;;;5074534;28;20047;-75
2023/04/21 11:20:39;;;;;;;10.35;5.78;;;18.70;79.70;;;;;;5055919;28;20044;-75
2023/04/21 11:23:05;;;;;;;16.70;6.07;;;18.70;77.90;;;;;;5056623;28;20066;-75
2023/04/21 11:25:30;;;;;;;11.07;5.60;;;18.70;77.00;;;;;;5039949;28;20520;-76
2023/04/21 11:27:58;;;;;;;9.27;5.07;;;18.80;77.10;;;;;;5039790;28;20037;-75
2023/04/21 11:30:32;;;;;;;7.95;5.60;;;18.90;76.30;;;;;;5056368;28;20044;-76
2023/04/21 11:32:58;;;;;;;9.82;5.47;;;18.90;75.30;;;;;;5056601;28;20059;-77
2023/04/21 11:35:24;;;;;;;10.88;5.57;;;18.90;75.70;;;;;;5062211;28;20036;-77
2023/04/21 11:37:50;;;;;;;9.77;4.78;;;19.00;74.30;;;;;;5056721;28;20090;-74
2023/04/21 11:40:17;;;;;;;14.70;4.80;;;19.10;74.50;;;;;;5056095;28;20044;-75
2023/04/21 11:42:43;;;;;;;9.60;5.18;;;19.30;74.30;;;;;;5040248;28;20411;-73
2023/04/21 11:45:18;;;;;;;7.22;4.65;;;19.20;72.70;;;;;;5040158;28;20036;-76
2023/04/21 11:47:44;;;;;;;12.55;5.07;;;19.00;71.40;;;;;;5056337;28;20439;-76
2023/04/21 11:50:10;;;;;;;7.90;4.97;;;19.00;71.50;;;;;;5038894;28;20032;-76
2023/04/21 11:52:36;;;;;;;7.28;5.10;;;18.90;71.00;;;;;;5037410;28;20048;-75
2023/04/21 11:55:03;;;;;;;11.90;5.50;;;18.90;71.80;;;;;;5073126;28;20131;-75
2023/04/21 11:57:31;;;;;;;12.10;4.93;;;19.00;71.70;;;;;;5038622;28;20059;-76
2023/04/21 12:00:01;;;;;;;12.55;4.97;;;19.10;71.90;;;;;;5055032;28;20079;-75
2023/04/21 12:02:31;;;;;;;9.82;4.20;;;19.10;69.30;;;;;;5055556;28;20037;-75
2023/04/21 12:05:04;;;;;;;10.43;4.78;;;19.00;68.00;;;;;;5055749;28;20072;-76
2023/04/21 12:07:31;;;;;;;9.05;3.47;;;19.00;68.30;;;;;;5055769;28;20040;-76
2023/04/21 12:09:57;;;;;;;7.50;3.40;;;19.00;65.10;;;;;;5055425;28;20074;-75
2023/04/21 12:12:23;;;;;;;11.57;4.50;;;19.10;64.30;;;;;;5055778;28;20395;-75
2023/04/21 12:14:50;;;;;;;7.38;4.38;;;19.40;64.60;;;;;;5055462;28;20036;-76
2023/04/21 12:17:16;;;;;;;7.47;3.97;;;19.50;63.40;;;;;;5055598;28;20037;-76
2023/04/21 12:19:42;;;;;;;7.57;4.65;;;19.50;61.40;;;;;;5055460;28;20072;-76
2023/04/21 12:22:12;;;;;;;12.20;4.70;;;19.60;60.10;;;;;;5055645;28;20072;-75
2023/04/21 12:24:39;;;;;;;7.85;3.63;;;19.60;60.90;;;;;;5055257;28;20576;-76
2023/04/21 12:27:05;;;;;;;7.10;3.97;;;19.60;61.50;;;;;;5038718;28;20159;-76
2023/04/21 12:29:34;;;;;;;8.38;4.00;;;19.60;60.20;;;;;;5038949;28;20123;-76
2023/04/21 12:32:00;;;;;;;8.60;3.33;;;19.60;58.60;;;;;;5055347;28;20055;-76